Ratho, United Kingdom
Current Conditions -  °F | °C
As of 12:20 AM on Saturday 29 Nov 2014 (Local Time) from EGPH Reporting Station
Overcast Overcast  
Wind Chill: 10°   Ceiling: 900
Heat Index: 10°   Visibility: 6mi
Dew Point:   Wind: 8mph
Humidity: 94%   Direction: 80°E
Pressure: 29.88"   Gusts: NA
Location:  55.92°N, 3.38°W
Report Text: EGPH 290020Z 08007KT 9999 OVC009 10/09 Q1012
Loading
Personal Weather Stations






























Interactive Weather Map New forecast layout! Learn more

10-Day Weather Forecast

Advertisements
Track Severe Weather on mobile